Time;durP1;ratioP1;P1;durP2;ratioP2;P2;SDS_P1;SDS_P2;PMS_P1;PMS_P2;Temp;Humidity;BMP_temperature;BMP_pressure;BME280_temperature;BME280_humidity;BME280_pressure;Samples;Min_cycle;Max_cycle;Signal;HPM_P1;HPM_P2
2023/03/08 00:01:42;;;;;;;4.15;0.75;;;;;;;;;;4905353;29;20043;-68
2023/03/08 00:04:10;;;;;;;2.92;0.80;;;;;;;;;;4919542;29;20039;-67
2023/03/08 00:06:36;;;;;;;1.85;0.63;;;;;;;;;;4917501;29;20052;-67
2023/03/08 00:09:02;;;;;;;3.20;0.95;;;;;;;;;;4905121;29;20059;-68
2023/03/08 00:11:29;;;;;;;3.17;0.73;;;;;;;;;;4918453;29;20070;-67
2023/03/08 00:13:55;;;;;;;6.38;0.68;;;;;;;;;;4920790;29;20122;-68
2023/03/08 00:16:22;;;;;;;0.52;0.40;;;;;;;;;;4919680;29;20048;-68
2023/03/08 00:18:48;;;;;;;0.35;0.20;;;;;;;;;;4921351;29;21253;-68
2023/03/08 00:21:15;;;;;;;0.65;0.32;;;;;;;;;;4899601;29;20043;-68
2023/03/08 00:23:42;;;;;;;1.55;0.45;;;;;;;;;;4920338;29;20062;-68
2023/03/08 00:26:08;;;;;;;0.82;0.35;;;;;;;;;;4920262;29;20035;-68
2023/03/08 00:28:34;;;;;;;1.30;0.30;;;;;;;;;;4904962;29;20048;-68
2023/03/08 00:31:03;;;;;;;1.98;0.30;;;;;;;;;;4918696;29;20047;-68
2023/03/08 00:33:31;;;;;;;0.57;0.30;;;;;;;;;;4902478;29;20044;-68
2023/03/08 00:36:03;;;;;;;1.13;0.30;;;;;;;;;;4907195;29;20059;-68
2023/03/08 00:38:31;;;;;;;2.17;0.47;;;;;;;;;;4905150;29;20491;-68
2023/03/08 00:40:58;;;;;;;2.58;0.50;;;;;;;;;;4913663;29;20154;-68
2023/03/08 00:43:24;;;;;;;3.42;0.60;;;;;;;;;;4921501;29;20484;-68
2023/03/08 00:45:50;;;;;;;1.52;0.40;;;;;;;;;;4919333;29;20436;-68
2023/03/08 00:48:17;;;;;;;1.42;0.38;;;;;;;;;;4918733;29;20119;-68
2023/03/08 00:50:43;;;;;;;3.55;0.45;;;;;;;;;;4904407;29;20048;-68
2023/03/08 00:53:09;;;;;;;2.10;0.47;;;;;;;;;;4920817;29;20054;-68
2023/03/08 00:55:36;;;;;;;4.43;0.40;;;;;;;;;;4906807;29;20532;-68
2023/03/08 00:58:02;;;;;;;1.48;0.40;;;;;;;;;;4910339;29;20051;-68
2023/03/08 01:00:29;;;;;;;2.00;0.40;;;;;;;;;;4925060;29;20467;-68
2023/03/08 01:02:55;;;;;;;3.50;0.47;;;;;;;;;;4923684;29;20043;-68
2023/03/08 01:05:22;;;;;;;1.33;0.50;;;;;;;;;;4922534;29;20372;-68
2023/03/08 01:07:48;;;;;;;3.83;0.63;;;;;;;;;;4919654;29;20115;-68
2023/03/08 01:10:14;;;;;;;4.50;0.55;;;;;;;;;;4921139;29;20439;-68
2023/03/08 01:12:40;;;;;;;1.60;0.50;;;;;;;;;;4918095;29;20040;-68
2023/03/08 01:15:07;;;;;;;1.35;0.40;;;;;;;;;;4903145;29;20051;-68
2023/03/08 01:17:33;;;;;;;3.53;0.60;;;;;;;;;;4916651;29;20063;-68
2023/03/08 01:19:59;;;;;;;4.50;0.50;;;;;;;;;;4919635;29;20040;-68
2023/03/08 01:22:25;;;;;;;1.70;0.50;;;;;;;;;;4909409;29;20396;-68
2023/03/08 01:24:51;;;;;;;1.85;0.50;;;;;;;;;;4906111;29;20192;-68
2023/03/08 01:27:18;;;;;;;2.80;0.63;;;;;;;;;;4917512;29;20055;-68
2023/03/08 01:29:44;;;;;;;1.00;0.45;;;;;;;;;;4917906;29;20067;-68
2023/03/08 01:32:11;;;;;;;4.80;0.55;;;;;;;;;;4918997;29;21843;-68
2023/03/08 01:34:37;;;;;;;4.57;1.10;;;;;;;;;;4920474;29;20499;-68
2023/03/08 01:37:04;;;;;;;2.25;0.70;;;;;;;;;;4900157;29;20209;-68
2023/03/08 01:39:30;;;;;;;4.72;0.50;;;;;;;;;;4919306;29;20126;-68
2023/03/08 01:41:56;;;;;;;4.00;0.55;;;;;;;;;;4917399;29;20135;-68
2023/03/08 01:44:23;;;;;;;1.73;0.65;;;;;;;;;;4925697;29;20732;-68
2023/03/08 01:46:49;;;;;;;8.10;0.63;;;;;;;;;;4918565;29;20044;-68
2023/03/08 01:49:16;;;;;;;3.28;0.60;;;;;;;;;;4919698;29;20511;-68
2023/03/08 01:51:49;;;;;;;3.25;0.63;;;;;;;;;;4917914;29;20048;-68
2023/03/08 01:54:23;;;;;;;5.90;0.90;;;;;;;;;;4918013;29;20059;-68
2023/03/08 01:56:50;;;;;;;4.95;0.82;;;;;;;;;;4916926;29;20051;-68
2023/03/08 01:59:17;;;;;;;5.50;0.90;;;;;;;;;;4915584;29;20051;-68
2023/03/08 02:01:44;;;;;;;3.35;0.70;;;;;;;;;;4917714;29;20449;-68
2023/03/08 02:04:11;;;;;;;5.32;0.90;;;;;;;;;;4919278;29;20106;-68
2023/03/08 02:06:37;;;;;;;0.52;0.30;;;;;;;;;;4919340;29;20052;-68
2023/03/08 02:09:03;;;;;;;1.38;0.40;;;;;;;;;;4901055;29;20126;-68
2023/03/08 02:11:30;;;;;;;2.15;0.32;;;;;;;;;;4917163;29;20851;-68
2023/03/08 02:13:56;;;;;;;0.73;0.38;;;;;;;;;;4915879;29;20048;-68
2023/03/08 02:16:23;;;;;;;0.80;0.28;;;;;;;;;;4902175;29;20063;-68
2023/03/08 02:18:50;;;;;;;1.23;0.22;;;;;;;;;;4918184;29;20499;-68
2023/03/08 02:21:17;;;;;;;1.27;0.30;;;;;;;;;;4918101;29;20083;-68
2023/03/08 02:23:43;;;;;;;0.45;0.20;;;;;;;;;;4902371;29;20051;-68
2023/03/08 02:26:09;;;;;;;0.65;0.30;;;;;;;;;;4918511;29;20047;-67
2023/03/08 02:28:35;;;;;;;4.65;1.00;;;;;;;;;;4917200;29;20185;-67
2023/03/08 02:31:02;;;;;;;1.08;0.65;;;;;;;;;;4916197;29;20071;-68
2023/03/08 02:33:30;;;;;;;1.48;0.47;;;;;;;;;;4917833;29;20055;-67
2023/03/08 02:35:56;;;;;;;1.13;0.30;;;;;;;;;;4918445;29;20596;-68
2023/03/08 02:38:22;;;;;;;2.35;0.30;;;;;;;;;;4903351;29;20146;-67
2023/03/08 02:40:50;;;;;;;0.65;0.20;;;;;;;;;;4917173;29;20043;-68
2023/03/08 02:43:17;;;;;;;0.40;0.20;;;;;;;;;;4916768;29;20384;-68
2023/03/08 02:45:44;;;;;;;1.35;0.30;;;;;;;;;;4916840;29;20039;-68
2023/03/08 02:48:10;;;;;;;3.47;0.50;;;;;;;;;;4918149;29;20043;-68
2023/03/08 02:50:36;;;;;;;3.58;0.47;;;;;;;;;;4917855;29;20163;-68
2023/03/08 02:53:03;;;;;;;2.95;0.52;;;;;;;;;;4918075;29;20056;-68
2023/03/08 02:55:29;;;;;;;2.00;0.40;;;;;;;;;;4915994;29;20475;-68
2023/03/08 02:57:55;;;;;;;3.13;0.40;;;;;;;;;;4918430;29;20043;-68
2023/03/08 03:00:21;;;;;;;1.40;0.57;;;;;;;;;;4919775;29;20496;-68
2023/03/08 03:02:47;;;;;;;1.67;0.57;;;;;;;;;;4914593;29;20043;-68
2023/03/08 03:05:14;;;;;;;1.95;0.68;;;;;;;;;;4917430;29;20128;-67
2023/03/08 03:07:41;;;;;;;2.30;0.82;;;;;;;;;;4918309;29;20051;-68
2023/03/08 03:10:08;;;;;;;4.38;0.60;;;;;;;;;;4917422;29;20045;-67
2023/03/08 03:12:34;;;;;;;1.45;0.73;;;;;;;;;;4916681;29;20676;-67
2023/03/08 03:15:01;;;;;;;2.70;1.38;;;;;;;;;;4916768;29;20036;-67
2023/03/08 03:17:28;;;;;;;1.13;0.38;;;;;;;;;;4916985;29;20054;-68
2023/03/08 03:19:54;;;;;;;1.88;0.80;;;;;;;;;;4921921;29;20598;-67
2023/03/08 03:22:20;;;;;;;2.75;0.80;;;;;;;;;;4922022;29;20051;-68
2023/03/08 03:24:46;;;;;;;3.83;0.73;;;;;;;;;;4921876;29;20044;-68
2023/03/08 03:27:12;;;;;;;4.57;1.08;;;;;;;;;;4919748;29;20391;-67
2023/03/08 03:29:38;;;;;;;7.55;1.60;;;;;;;;;;4911853;28;20052;-67
2023/03/08 03:32:05;;;;;;;2.00;1.00;;;;;;;;;;4903972;29;20107;-67
2023/03/08 03:34:31;;;;;;;4.00;1.05;;;;;;;;;;4919020;29;20048;-67
2023/03/08 03:36:57;;;;;;;5.10;1.42;;;;;;;;;;4915074;29;20075;-68
2023/03/08 03:39:23;;;;;;;4.25;1.15;;;;;;;;;;4924027;29;20043;-68
2023/03/08 03:41:49;;;;;;;3.08;1.05;;;;;;;;;;4926225;29;20551;-68
2023/03/08 03:44:16;;;;;;;2.40;0.80;;;;;;;;;;4922030;29;20053;-68
2023/03/08 03:46:42;;;;;;;3.97;1.13;;;;;;;;;;4919359;29;20070;-68
2023/03/08 03:49:08;;;;;;;4.07;1.02;;;;;;;;;;4920811;29;20044;-68
2023/03/08 03:51:34;;;;;;;5.80;1.15;;;;;;;;;;4918340;29;20047;-68
2023/03/08 03:54:01;;;;;;;4.43;1.13;;;;;;;;;;4921949;29;20832;-67
2023/03/08 03:56:27;;;;;;;3.20;1.30;;;;;;;;;;4902384;29;20138;-67
2023/03/08 03:58:54;;;;;;;4.50;0.95;;;;;;;;;;4918925;29;20044;-68
2023/03/08 04:01:21;;;;;;;3.92;1.38;;;;;;;;;;4920480;29;20047;-68
2023/03/08 04:03:48;;;;;;;3.95;1.08;;;;;;;;;;4903933;29;20086;-67
2023/03/08 04:06:15;;;;;;;4.43;1.35;;;;;;;;;;4923945;29;20047;-68
2023/03/08 04:08:42;;;;;;;7.05;1.00;;;;;;;;;;4922945;29;20052;-67
2023/03/08 04:11:09;;;;;;;2.53;0.82;;;;;;;;;;4922915;29;20494;-68
2023/03/08 04:13:35;;;;;;;2.17;0.70;;;;;;;;;;4920791;29;20043;-68
2023/03/08 04:16:08;;;;;;;2.42;0.70;;;;;;;;;;4919594;29;20079;-68
2023/03/08 04:18:34;;;;;;;3.90;0.70;;;;;;;;;;4921266;29;20439;-67
2023/03/08 04:21:00;;;;;;;6.18;0.80;;;;;;;;;;4919708;29;20036;-68
2023/03/08 04:23:26;;;;;;;5.57;1.33;;;;;;;;;;4928450;29;20071;-68
2023/03/08 04:25:52;;;;;;;3.97;1.08;;;;;;;;;;4896988;29;20508;-68
2023/03/08 04:28:19;;;;;;;4.45;0.70;;;;;;;;;;4906932;29;20075;-68
2023/03/08 04:30:45;;;;;;;4.60;0.68;;;;;;;;;;4892575;29;20048;-68
2023/03/08 04:33:11;;;;;;;7.68;1.35;;;;;;;;;;4885574;29;20063;-67
2023/03/08 04:35:37;;;;;;;5.70;0.70;;;;;;;;;;4885629;29;20591;-68
2023/03/08 04:38:03;;;;;;;11.25;0.90;;;;;;;;;;4885762;29;20278;-68
2023/03/08 04:40:30;;;;;;;5.40;0.82;;;;;;;;;;4902043;29;20150;-68
2023/03/08 04:42:56;;;;;;;5.70;0.70;;;;;;;;;;4899622;29;20059;-68
2023/03/08 04:45:22;;;;;;;25.73;2.55;;;;;;;;;;4884334;29;20472;-68
2023/03/08 04:47:48;;;;;;;7.07;1.02;;;;;;;;;;4901732;29;20048;-68
2023/03/08 04:50:14;;;;;;;2.90;0.93;;;;;;;;;;4898563;29;20055;-68
2023/03/08 04:52:40;;;;;;;5.30;1.25;;;;;;;;;;4901360;29;20198;-68
2023/03/08 04:55:07;;;;;;;2.90;0.75;;;;;;;;;;4899529;29;20470;-68
2023/03/08 04:57:34;;;;;;;4.25;1.40;;;;;;;;;;4898823;29;20052;-68
2023/03/08 05:00:00;;;;;;;1.88;0.77;;;;;;;;;;4900529;29;20040;-68
2023/03/08 05:02:26;;;;;;;2.70;0.77;;;;;;;;;;4900302;29;20056;-68
2023/03/08 05:04:52;;;;;;;1.75;0.60;;;;;;;;;;4899741;29;20048;-68
2023/03/08 05:07:18;;;;;;;3.40;0.80;;;;;;;;;;4900788;29;20400;-68
2023/03/08 05:09:44;;;;;;;5.70;0.90;;;;;;;;;;4899266;29;20085;-68
2023/03/08 05:12:10;;;;;;;2.67;0.80;;;;;;;;;;4900574;29;20060;-68
2023/03/08 05:14:37;;;;;;;2.60;0.70;;;;;;;;;;4901396;29;20179;-68
2023/03/08 05:17:03;;;;;;;2.17;0.85;;;;;;;;;;4882305;29;20044;-68
2023/03/08 05:19:29;;;;;;;5.60;0.90;;;;;;;;;;4899583;29;20086;-68
2023/03/08 05:21:55;;;;;;;1.50;0.70;;;;;;;;;;4900862;29;20456;-68
2023/03/08 05:24:21;;;;;;;3.58;1.02;;;;;;;;;;4903081;29;20047;-68
2023/03/08 05:26:48;;;;;;;5.03;0.90;;;;;;;;;;4899471;29;20052;-68
2023/03/08 05:29:14;;;;;;;4.10;0.85;;;;;;;;;;4900543;29;20381;-68
2023/03/08 05:31:42;;;;;;;7.28;1.38;;;;;;;;;;4917116;29;20090;-68
2023/03/08 05:34:10;;;;;;;5.53;1.60;;;;;;;;;;4918593;29;20066;-68
2023/03/08 05:36:36;;;;;;;1.80;0.63;;;;;;;;;;4918129;29;20048;-68
2023/03/08 05:39:03;;;;;;;2.67;0.75;;;;;;;;;;4886419;29;20055;-68
2023/03/08 05:41:29;;;;;;;3.00;1.05;;;;;;;;;;4904891;29;20035;-68
2023/03/08 05:43:57;;;;;;;5.05;1.30;;;;;;;;;;4919948;29;20047;-68
2023/03/08 05:46:23;;;;;;;3.28;0.80;;;;;;;;;;4919731;29;20415;-68
2023/03/08 05:48:49;;;;;;;2.33;0.70;;;;;;;;;;4920523;29;20058;-68
2023/03/08 05:51:16;;;;;;;2.92;0.88;;;;;;;;;;4918927;29;20047;-68
2023/03/08 05:53:43;;;;;;;3.28;0.95;;;;;;;;;;4916105;29;20071;-68
2023/03/08 05:56:10;;;;;;;2.45;0.98;;;;;;;;;;4917008;29;20106;-68
2023/03/08 05:58:37;;;;;;;3.80;1.00;;;;;;;;;;4924381;29;20138;-67
2023/03/08 06:01:15;;;;;;;5.18;0.70;;;;;;;;;;4923122;29;20134;-68
2023/03/08 06:03:41;;;;;;;1.35;0.65;;;;;;;;;;4924123;29;20052;-67
2023/03/08 06:06:07;;;;;;;4.30;0.90;;;;;;;;;;4925167;29;20464;-67
2023/03/08 06:08:33;;;;;;;2.60;1.20;;;;;;;;;;4924652;29;20044;-68
2023/03/08 06:10:59;;;;;;;4.85;1.10;;;;;;;;;;4925320;29;20055;-68
2023/03/08 06:13:26;;;;;;;3.90;1.15;;;;;;;;;;4924765;29;20055;-68
2023/03/08 06:15:54;;;;;;;5.05;1.15;;;;;;;;;;4924933;29;20399;-68
2023/03/08 06:18:20;;;;;;;4.20;1.52;;;;;;;;;;4925117;29;20051;-69
2023/03/08 06:20:55;;;;;;;2.67;1.00;;;;;;;;;;4923837;29;20055;-69
2023/03/08 06:23:21;;;;;;;6.97;1.00;;;;;;;;;;4920296;29;20070;-69
2023/03/08 06:25:47;;;;;;;4.35;1.25;;;;;;;;;;4920073;29;20080;-69
2023/03/08 06:28:14;;;;;;;4.38;1.00;;;;;;;;;;4922400;29;21268;-68
2023/03/08 06:30:40;;;;;;;5.18;0.95;;;;;;;;;;4922211;29;20051;-68
2023/03/08 06:33:06;;;;;;;3.42;1.10;;;;;;;;;;4920812;29;20056;-67
2023/03/08 06:35:32;;;;;;;3.88;1.35;;;;;;;;;;4926433;29;20101;-67
2023/03/08 06:37:58;;;;;;;4.40;1.23;;;;;;;;;;4911300;29;20052;-68
2023/03/08 06:40:25;;;;;;;10.77;1.58;;;;;;;;;;4921799;29;20048;-68
2023/03/08 06:42:51;;;;;;;5.97;1.17;;;;;;;;;;4928437;29;20055;-68
2023/03/08 06:45:17;;;;;;;3.58;0.98;;;;;;;;;;4928476;29;20044;-68
2023/03/08 06:47:43;;;;;;;6.03;1.25;;;;;;;;;;4926108;29;20069;-68
2023/03/08 06:50:10;;;;;;;2.60;1.02;;;;;;;;;;4925040;29;20074;-67
2023/03/08 06:52:36;;;;;;;5.70;1.08;;;;;;;;;;4928270;29;20547;-68
2023/03/08 06:55:03;;;;;;;2.70;1.00;;;;;;;;;;4926476;29;20056;-68
2023/03/08 06:57:29;;;;;;;4.32;1.10;;;;;;;;;;4929829;29;20046;-68
2023/03/08 06:59:56;;;;;;;8.57;1.30;;;;;;;;;;4930619;29;20135;-69
2023/03/08 07:02:22;;;;;;;5.35;1.20;;;;;;;;;;4926926;29;20115;-69
2023/03/08 07:04:48;;;;;;;5.50;1.40;;;;;;;;;;4925783;29;20035;-69
2023/03/08 07:07:14;;;;;;;8.90;1.73;;;;;;;;;;4926823;29;20095;-68
2023/03/08 07:09:40;;;;;;;6.60;1.23;;;;;;;;;;4910925;29;20716;-69
2023/03/08 07:12:07;;;;;;;6.90;1.88;;;;;;;;;;4927675;29;20111;-69
2023/03/08 07:14:33;;;;;;;9.52;1.63;;;;;;;;;;4926084;29;20142;-69
2023/03/08 07:16:59;;;;;;;3.33;1.30;;;;;;;;;;4926544;29;20103;-68
2023/03/08 07:19:25;;;;;;;6.72;1.67;;;;;;;;;;4928140;29;20547;-68
2023/03/08 07:21:51;;;;;;;4.65;1.60;;;;;;;;;;4925682;29;20059;-68
2023/03/08 07:24:17;;;;;;;7.05;1.48;;;;;;;;;;4925464;29;20095;-67
2023/03/08 07:26:44;;;;;;;5.53;1.70;;;;;;;;;;4921645;29;20056;-68
2023/03/08 07:29:10;;;;;;;5.55;1.80;;;;;;;;;;4892199;29;20166;-68
2023/03/08 07:31:36;;;;;;;5.28;1.67;;;;;;;;;;4925313;29;20048;-68
2023/03/08 07:34:03;;;;;;;7.13;1.67;;;;;;;;;;4926813;29;20138;-68
2023/03/08 07:36:29;;;;;;;8.02;2.00;;;;;;;;;;4912051;29;20048;-68
2023/03/08 07:38:55;;;;;;;10.15;2.10;;;;;;;;;;4927281;29;20046;-68
2023/03/08 07:41:21;;;;;;;10.70;1.85;;;;;;;;;;4925059;29;20051;-68
2023/03/08 07:43:48;;;;;;;5.55;2.30;;;;;;;;;;4926315;29;20059;-68
2023/03/08 07:46:14;;;;;;;11.05;2.60;;;;;;;;;;4927040;29;20081;-68
2023/03/08 07:48:41;;;;;;;6.43;2.22;;;;;;;;;;4926328;29;20507;-66
2023/03/08 07:51:09;;;;;;;6.57;1.98;;;;;;;;;;4922478;29;20036;-67
2023/03/08 07:53:36;;;;;;;8.73;2.60;;;;;;;;;;4920740;29;20222;-67
2023/03/08 07:56:03;;;;;;;6.40;2.03;;;;;;;;;;4907391;29;20036;-68
2023/03/08 07:58:29;;;;;;;11.82;2.38;;;;;;;;;;4926704;29;20054;-68
2023/03/08 08:00:55;;;;;;;5.72;2.30;;;;;;;;;;4927190;29;20057;-68
2023/03/08 08:03:22;;;;;;;8.35;2.47;;;;;;;;;;4925972;29;20396;-68
2023/03/08 08:05:48;;;;;;;6.25;2.92;;;;;;;;;;4919048;29;20449;-68
2023/03/08 08:08:14;;;;;;;7.40;2.92;;;;;;;;;;4910483;29;20047;-68
2023/03/08 08:10:41;;;;;;;10.77;3.50;;;;;;;;;;4927471;29;20035;-68
2023/03/08 08:13:07;;;;;;;10.07;3.92;;;;;;;;;;4925019;29;20532;-68
2023/03/08 08:15:33;;;;;;;14.27;4.00;;;;;;;;;;4923041;29;20420;-68
2023/03/08 08:18:00;;;;;;;15.73;4.50;;;;;;;;;;4927241;29;20040;-68
2023/03/08 08:20:27;;;;;;;7.50;3.50;;;;;;;;;;4920852;29;20473;-68
2023/03/08 08:22:53;;;;;;;8.25;2.67;;;;;;;;;;4918904;29;20138;-68
2023/03/08 08:25:20;;;;;;;9.15;2.60;;;;;;;;;;4909583;29;20062;-68
2023/03/08 08:27:46;;;;;;;8.07;3.00;;;;;;;;;;4930561;29;20048;-68
2023/03/08 08:30:13;;;;;;;5.75;2.38;;;;;;;;;;4932212;28;20059;-68
2023/03/08 08:32:40;;;;;;;7.07;2.50;;;;;;;;;;4942940;28;20060;-68
2023/03/08 08:35:06;;;;;;;9.57;3.05;;;;;;;;;;4930954;29;20240;-68
2023/03/08 08:37:33;;;;;;;9.77;2.85;;;;;;;;;;4929853;29;20111;-67
2023/03/08 08:39:59;;;;;;;8.13;2.70;;;;;;;;;;4930826;29;20180;-68
2023/03/08 08:42:26;;;;;;;4.75;2.33;;;;;;;;;;4929875;29;20400;-67
2023/03/08 08:44:52;;;;;;;8.68;2.80;;;;;;;;;;4929775;29;20054;-68
2023/03/08 08:47:19;;;;;;;16.40;3.80;;;;;;;;;;4929675;29;20471;-68
2023/03/08 08:49:45;;;;;;;7.07;3.03;;;;;;;;;;4930303;29;20058;-68
2023/03/08 08:52:11;;;;;;;8.10;3.00;;;;;;;;;;4928427;29;20043;-68
2023/03/08 08:54:38;;;;;;;8.18;3.05;;;;;;;;;;4929473;29;20069;-69
2023/03/08 08:57:05;;;;;;;8.25;2.50;;;;;;;;;;4929900;29;20510;-69
2023/03/08 08:59:31;;;;;;;6.53;2.45;;;;;;;;;;4928387;29;20475;-68
2023/03/08 09:01:58;;;;;;;9.75;2.75;;;;;;;;;;4929780;29;20062;-68
2023/03/08 09:04:24;;;;;;;7.00;3.05;;;;;;;;;;4928317;29;20051;-68
2023/03/08 09:06:52;;;;;;;7.85;2.70;;;;;;;;;;4928997;29;20039;-68
2023/03/08 09:09:18;;;;;;;7.07;2.75;;;;;;;;;;4923479;29;20044;-68
2023/03/08 09:11:47;;;;;;;6.93;2.53;;;;;;;;;;4927307;29;20486;-68
2023/03/08 09:14:13;;;;;;;7.53;2.80;;;;;;;;;;4943352;28;20401;-68
2023/03/08 09:16:39;;;;;;;6.45;2.60;;;;;;;;;;4929097;29;20044;-68
2023/03/08 09:19:06;;;;;;;10.82;3.42;;;;;;;;;;4943404;28;20521;-68
2023/03/08 09:21:33;;;;;;;8.13;2.50;;;;;;;;;;4928518;29;20055;-68
2023/03/08 09:24:00;;;;;;;8.82;2.30;;;;;;;;;;4929153;29;20040;-69
2023/03/08 09:26:28;;;;;;;6.22;2.50;;;;;;;;;;4928045;29;20079;-67
2023/03/08 09:28:54;;;;;;;7.10;2.60;;;;;;;;;;4925521;29;20055;-67
2023/03/08 09:31:22;;;;;;;6.22;2.95;;;;;;;;;;4926510;29;20166;-67
2023/03/08 09:33:50;;;;;;;6.57;2.30;;;;;;;;;;4927389;29;20074;-68
2023/03/08 09:36:17;;;;;;;6.60;2.58;;;;;;;;;;4925787;29;20063;-68
2023/03/08 09:38:43;;;;;;;8.90;2.28;;;;;;;;;;4927497;29;20631;-68
2023/03/08 09:41:14;;;;;;;5.45;2.47;;;;;;;;;;4927111;29;20036;-68
2023/03/08 09:43:41;;;;;;;6.05;2.42;;;;;;;;;;4926595;29;20055;-68
2023/03/08 09:46:11;;;;;;;5.95;2.28;;;;;;;;;;4927569;29;20532;-68
2023/03/08 09:48:38;;;;;;;5.25;2.05;;;;;;;;;;4928042;29;20369;-68
2023/03/08 09:51:08;;;;;;;6.53;1.83;;;;;;;;;;4926336;29;20043;-68
2023/03/08 09:53:38;;;;;;;4.18;1.92;;;;;;;;;;4926241;29;20426;-69
2023/03/08 09:56:12;;;;;;;5.50;2.17;;;;;;;;;;4926931;29;20047;-68
2023/03/08 09:58:41;;;;;;;7.20;2.70;;;;;;;;;;4926321;29;20555;-68
2023/03/08 10:01:12;;;;;;;6.90;2.67;;;;;;;;;;4928929;29;20050;-68
2023/03/08 10:03:49;;;;;;;5.13;2.15;;;;;;;;;;4926733;29;20389;-68
2023/03/08 10:06:32;;;;;;;5.03;2.40;;;;;;;;;;4927842;29;20046;-68
2023/03/08 10:09:03;;;;;;;7.68;2.88;;;;;;;;;;4911029;29;20047;-68
2023/03/08 10:11:33;;;;;;;9.20;2.13;;;;;;;;;;4921043;29;20051;-68
2023/03/08 10:14:02;;;;;;;5.15;2.25;;;;;;;;;;4921702;29;20055;-67
2023/03/08 10:16:32;;;;;;;5.15;2.40;;;;;;;;;;4915320;29;20047;-68
2023/03/08 10:19:03;;;;;;;9.55;1.85;;;;;;;;;;4930837;29;20040;-68
2023/03/08 10:21:32;;;;;;;5.68;1.77;;;;;;;;;;4928690;29;20046;-68
2023/03/08 10:23:58;;;;;;;6.18;1.38;;;;;;;;;;4904724;29;20051;-68
2023/03/08 10:26:25;;;;;;;6.35;2.22;;;;;;;;;;4921856;29;20166;-68
2023/03/08 10:28:51;;;;;;;6.88;2.03;;;;;;;;;;4921431;29;20482;-67
2023/03/08 10:31:20;;;;;;;8.55;1.90;;;;;;;;;;4924971;29;20075;-68
2023/03/08 10:33:47;;;;;;;8.93;1.63;;;;;;;;;;4908528;29;20130;-68
2023/03/08 10:36:21;;;;;;;7.32;1.65;;;;;;;;;;4927565;29;20482;-68
2023/03/08 10:39:04;;;;;;;4.80;1.70;;;;;;;;;;4926139;29;20151;-67
2023/03/08 10:41:31;;;;;;;4.00;1.60;;;;;;;;;;4926414;29;20062;-67
2023/03/08 10:43:58;;;;;;;11.05;2.10;;;;;;;;;;4927690;29;20448;-67
2023/03/08 10:46:27;;;;;;;5.93;1.70;;;;;;;;;;4912317;29;20559;-68
2023/03/08 10:48:53;;;;;;;8.38;1.52;;;;;;;;;;4927400;29;20043;-67
2023/03/08 10:51:21;;;;;;;7.15;1.73;;;;;;;;;;4926479;29;20055;-68
2023/03/08 10:53:55;;;;;;;7.18;1.30;;;;;;;;;;4930302;29;20103;-67
2023/03/08 10:56:30;;;;;;;4.05;1.27;;;;;;;;;;4908717;29;20103;-67
2023/03/08 10:58:57;;;;;;;6.05;1.80;;;;;;;;;;4926377;29;20058;-67
2023/03/08 11:01:25;;;;;;;7.22;1.63;;;;;;;;;;4921991;29;20059;-67
2023/03/08 11:04:03;;;;;;;6.82;1.52;;;;;;;;;;4922447;29;20070;-68
2023/03/08 11:06:29;;;;;;;8.05;1.80;;;;;;;;;;4925452;29;20047;-68
2023/03/08 11:08:58;;;;;;;11.00;1.65;;;;;;;;;;4924013;29;20095;-68
2023/03/08 11:11:25;;;;;;;4.95;1.35;;;;;;;;;;4927064;29;20106;-68
2023/03/08 11:13:52;;;;;;;4.85;1.05;;;;;;;;;;4924961;29;20044;-68
2023/03/08 11:16:30;;;;;;;5.80;1.25;;;;;;;;;;4925406;29;20396;-68
2023/03/08 11:18:58;;;;;;;13.77;1.55;;;;;;;;;;4914756;29;20401;-68
2023/03/08 11:21:32;;;;;;;5.65;1.42;;;;;;;;;;4922233;29;20048;-68
2023/03/08 11:24:04;;;;;;;7.60;1.25;;;;;;;;;;4910765;29;20079;-68
2023/03/08 11:26:30;;;;;;;11.25;1.58;;;;;;;;;;4911533;29;20040;-68
2023/03/08 11:29:04;;;;;;;8.85;1.63;;;;;;;;;;4919529;29;20052;-68
2023/03/08 11:31:48;;;;;;;7.00;1.40;;;;;;;;;;4922615;29;20672;-68
2023/03/08 11:34:15;;;;;;;11.25;1.55;;;;;;;;;;4926195;29;20099;-67
2023/03/08 11:37:00;;;;;;;4.10;1.48;;;;;;;;;;4922441;29;20103;-67
2023/03/08 11:39:27;;;;;;;5.40;1.08;;;;;;;;;;4925572;29;20047;-67
2023/03/08 11:41:57;;;;;;;5.25;0.90;;;;;;;;;;4925298;29;20084;-67
2023/03/08 11:44:34;;;;;;;9.23;1.13;;;;;;;;;;4925872;29;20428;-67
2023/03/08 11:47:11;;;;;;;7.15;1.20;;;;;;;;;;4926741;29;20135;-67
2023/03/08 11:49:52;;;;;;;6.10;1.60;;;;;;;;;;4927308;29;20044;-67
2023/03/08 11:52:32;;;;;;;5.68;1.00;;;;;;;;;;4918455;29;20492;-67
2023/03/08 11:55:05;;;;;;;5.40;1.00;;;;;;;;;;4925243;29;20487;-67
2023/03/08 11:57:35;;;;;;;6.85;0.98;;;;;;;;;;4923402;29;20474;-67
2023/03/08 12:00:11;;;;;;;4.85;1.50;;;;;;;;;;4928670;29;20047;-67
2023/03/08 12:02:39;;;;;;;4.28;0.85;;;;;;;;;;4931152;29;20371;-67
2023/03/08 12:05:20;;;;;;;3.80;0.90;;;;;;;;;;4930710;29;20047;-67
2023/03/08 12:07:54;;;;;;;6.03;1.10;;;;;;;;;;4930064;29;20054;-67
2023/03/08 12:10:23;;;;;;;6.75;0.90;;;;;;;;;;4926474;29;20268;-67
2023/03/08 12:12:55;;;;;;;7.75;1.00;;;;;;;;;;4931284;29;20130;-67
2023/03/08 12:15:22;;;;;;;6.97;1.25;;;;;;;;;;4909838;29;20489;-67
2023/03/08 12:17:52;;;;;;;9.90;1.10;;;;;;;;;;4919376;29;20039;-67
2023/03/08 12:20:21;;;;;;;8.00;2.22;;;;;;;;;;4925936;29;20047;-67
2023/03/08 12:22:57;;;;;;;5.88;0.93;;;;;;;;;;4927827;29;20056;-67
2023/03/08 12:25:32;;;;;;;5.40;1.00;;;;;;;;;;4927985;29;20032;-77
2023/03/08 12:28:03;;;;;;;6.55;1.00;;;;;;;;;;4926150;29;20055;-75
2023/03/08 12:30:29;;;;;;;5.90;1.08;;;;;;;;;;4931990;29;20062;-75
2023/03/08 12:32:57;;;;;;;7.82;1.20;;;;;;;;;;4930812;29;20055;-74
2023/03/08 12:35:27;;;;;;;5.95;1.48;;;;;;;;;;4932275;29;20503;-74
2023/03/08 12:37:55;;;;;;;5.32;1.17;;;;;;;;;;4933257;29;20479;-75
2023/03/08 12:40:27;;;;;;;3.42;1.10;;;;;;;;;;4926701;29;20127;-76
2023/03/08 12:43:05;;;;;;;3.90;1.50;;;;;;;;;;4933394;29;20066;-76
2023/03/08 12:45:31;;;;;;;6.35;1.40;;;;;;;;;;4929594;29;20455;-75
2023/03/08 12:48:07;;;;;;;6.28;1.38;;;;;;;;;;4925445;29;20039;-75
2023/03/08 12:50:54;;;;;;;9.05;1.45;;;;;;;;;;4925077;29;20130;-75
2023/03/08 12:53:26;;;;;;;4.50;0.82;;;;;;;;;;4905174;29;20130;-75
2023/03/08 12:55:59;;;;;;;7.22;1.90;;;;;;;;;;4923551;29;20138;-75
2023/03/08 12:58:26;;;;;;;6.50;1.70;;;;;;;;;;4926947;29;20085;-75
2023/03/08 13:01:01;;;;;;;3.95;1.00;;;;;;;;;;4928461;29;20170;-75
2023/03/08 13:03:29;;;;;;;5.00;1.13;;;;;;;;;;4927721;29;20452;-75
2023/03/08 13:05:55;;;;;;;6.38;1.45;;;;;;;;;;4925595;29;20253;-75
2023/03/08 13:08:26;;;;;;;5.80;0.93;;;;;;;;;;4926327;29;20138;-75
2023/03/08 13:10:52;;;;;;;4.13;1.10;;;;;;;;;;4922595;29;20054;-75
2023/03/08 13:13:32;;;;;;;6.97;1.27;;;;;;;;;;4904695;29;20048;-75
2023/03/08 13:16:07;;;;;;;5.45;1.17;;;;;;;;;;4925591;29;20069;-75
2023/03/08 13:18:33;;;;;;;6.65;1.20;;;;;;;;;;4927936;29;20712;-75
2023/03/08 13:21:14;;;;;;;3.17;0.90;;;;;;;;;;4922649;29;20389;-75
2023/03/08 13:23:44;;;;;;;5.20;1.60;;;;;;;;;;4927201;29;20051;-75
2023/03/08 13:26:20;;;;;;;5.93;1.20;;;;;;;;;;4913978;29;20444;-75
2023/03/08 13:28:47;;;;;;;3.63;0.77;;;;;;;;;;4929974;29;20048;-74
2023/03/08 13:31:17;;;;;;;6.70;1.48;;;;;;;;;;4932036;29;20055;-75
2023/03/08 13:33:46;;;;;;;7.60;1.17;;;;;;;;;;4932037;29;20554;-75
2023/03/08 13:36:16;;;;;;;3.95;1.05;;;;;;;;;;4930283;29;20044;-74
2023/03/08 13:38:42;;;;;;;6.13;1.17;;;;;;;;;;4932351;29;20412;-76
2023/03/08 13:41:09;;;;;;;8.80;2.00;;;;;;;;;;4914202;29;20432;-75
2023/03/08 13:43:35;;;;;;;4.60;1.30;;;;;;;;;;4930317;29;20040;-74
2023/03/08 13:46:03;;;;;;;6.43;1.98;;;;;;;;;;4927282;29;20043;-74
2023/03/08 13:48:31;;;;;;;5.60;0.90;;;;;;;;;;4930064;29;20048;-74
2023/03/08 13:50:58;;;;;;;7.22;1.48;;;;;;;;;;4932093;29;20040;-74
2023/03/08 13:53:26;;;;;;;5.03;1.08;;;;;;;;;;4932182;29;20071;-75
2023/03/08 13:55:55;;;;;;;4.38;1.00;;;;;;;;;;4926404;29;20131;-74
2023/03/08 13:58:31;;;;;;;6.13;1.40;;;;;;;;;;4926099;29;20475;-75
2023/03/08 14:00:59;;;;;;;18.48;2.95;;;;;;;;;;4914608;29;20040;-74
2023/03/08 14:03:27;;;;;;;7.15;1.73;;;;;;;;;;4925960;29;20154;-74
2023/03/08 14:05:53;;;;;;;6.13;1.40;;;;;;;;;;4925666;29;20036;-73
2023/03/08 14:08:23;;;;;;;4.65;1.38;;;;;;;;;;4914155;29;20054;-76
2023/03/08 14:10:53;;;;;;;4.93;1.15;;;;;;;;;;4926495;29;20102;-72
2023/03/08 14:13:23;;;;;;;5.30;0.98;;;;;;;;;;4920949;29;20044;-72
2023/03/08 14:15:50;;;;;;;7.45;1.23;;;;;;;;;;4912122;29;20488;-72
2023/03/08 14:18:24;;;;;;;7.75;1.10;;;;;;;;;;4906576;29;20067;-72
2023/03/08 14:21:07;;;;;;;4.32;1.10;;;;;;;;;;4907097;29;20055;-73
2023/03/08 14:23:37;;;;;;;3.40;0.93;;;;;;;;;;4925714;29;20075;-73
2023/03/08 14:26:04;;;;;;;5.60;1.02;;;;;;;;;;4909501;29;20319;-73
2023/03/08 14:28:35;;;;;;;4.03;1.10;;;;;;;;;;4906611;29;20044;-73
2023/03/08 14:31:01;;;;;;;5.47;1.25;;;;;;;;;;4921743;29;20047;-73
2023/03/08 14:33:28;;;;;;;9.30;1.40;;;;;;;;;;4929873;29;20078;-73
2023/03/08 14:35:57;;;;;;;9.95;1.40;;;;;;;;;;4914062;29;20199;-73
2023/03/08 14:38:26;;;;;;;4.85;1.23;;;;;;;;;;4929452;29;20679;-73
2023/03/08 14:40:53;;;;;;;5.68;1.52;;;;;;;;;;4931162;29;20054;-73
2023/03/08 14:43:21;;;;;;;5.30;1.40;;;;;;;;;;4930306;29;20083;-74
2023/03/08 14:45:52;;;;;;;15.73;1.33;;;;;;;;;;4929034;29;20047;-74
2023/03/08 14:48:28;;;;;;;8.32;1.65;;;;;;;;;;4911301;29;20039;-73